• Join FlightAware (Why Join?)
  • Login
  • US Flag 
11:00PM EST


 

Airport Tracker/Info


-or-


 

Live Flight TrackerFlight Track Log ✈ BJS339 ✈ 28-Dec-2013 ✈ TBPB / BGI - CYYZ

Flight Track Log - Related Links

Times and Time Zones

All times are in EST time to prevent confusion due to time zone crossing. See the BJS339 flight status page for this flight to view local times or setup timezone preferences in your user account.

Time Position Orientation Groundspeed Altitude Reporting Facility
EST Latitude Longitude Course Direction KTS MPH feet Rate Location/Type
04:47PM 15.7931 -62.4411 314° West  Level FlightAware Approximate
04:48PM 15.8744 -62.5304 313° West  Level FlightAware Approximate
04:49PM 15.9558 -62.6199 313° West  Level FlightAware Approximate
04:50PM 16.0370 -62.7095 313° West  Level FlightAware Approximate
04:51PM 16.1183 -62.7991 313° West  Level FlightAware Approximate
04:52PM 16.1995 -62.8888 313° West  Level FlightAware Approximate
04:53PM 16.2806 -62.9786 313° West  Level FlightAware Approximate
04:54PM 16.3630 -63.0671 312° West  Level FlightAware Approximate
04:55PM 16.4428 -63.1583 312° West  Level FlightAware Approximate
04:56PM 16.5226 -63.2495 312° West  Level FlightAware Approximate
04:57PM 16.6027 -63.3405 313° West  Level FlightAware Approximate
04:58PM 16.6832 -63.4310 313° West  Level FlightAware Approximate
04:58PM 16.2667 -62.9667 313° West 430 495 34,000  Level San Juan Center
04:59PM 16.7636 -63.5217 313° West  Level FlightAware Approximate
04:59PM 16.3500 -63.0500 316° Northwest 420 483 34,000  Level San Juan Center
05:00PM 16.8441 -63.6125 313° West  Level FlightAware Approximate
05:00PM 16.4333 -63.1333 316° Northwest 430 495 34,000  Level San Juan Center
05:01PM 16.9245 -63.7033 313° West  Level FlightAware Approximate
05:01PM 16.5167 -63.2500 307° West 410 472 34,000  Level San Juan Center
05:02PM 17.0048 -63.7942 313° West  Level FlightAware Approximate
05:02PM 16.6000 -63.3333 316° Northwest 420 483 34,000  Level San Juan Center
05:03PM 16.6667 -63.4333 305° West 420 483 34,000  Level San Juan Center
05:04PM 16.7500 -63.5167 316° Northwest 420 483 34,000  Level San Juan Center
05:05PM 16.8333 -63.6000 316° Northwest 430 495 34,000 250 Level San Juan Center
05:06PM 16.9167 -63.7000 311° West 430 495 34,500 645 Climbing San Juan Center
05:07PM 17.0000 -63.7833 316° Northwest 410 472 35,300 744 Climbing San Juan Center
05:08PM 17.0667 -63.8667 310° West 400 460 36,000 350 Climbing San Juan Center
05:09PM 17.1500 -63.9500 316° Northwest 390 449 36,000  Level San Juan Center
05:10PM 17.2167 -64.0500 305° West 410 472 36,000  Level San Juan Center
05:11PM 17.3000 -64.1333 316° Northwest 400 460 36,000  Level San Juan Center
05:12PM 17.3833 -64.2167 316° Northwest 410 472 36,000  Level San Juan Center
05:13PM 17.4500 -64.3000 310° West 410 472 36,000  Level San Juan Center
05:14PM 17.5333 -64.3833 316° Northwest 410 472 36,000  Level San Juan Center
05:15PM 17.6000 -64.4833 305° West 410 472 36,000  Level San Juan Center
05:16PM 17.6833 -64.5667 316° Northwest 410 472 36,000  Level San Juan Center
05:17PM 17.7667 -64.6500 316° Northwest 410 472 36,000  Level San Juan Center
05:18PM 17.8333 -64.7333 310° West 410 472 36,000  Level San Juan Center
05:19PM 17.9167 -64.8333 311° West 410 472 36,000  Level San Juan Center
05:20PM 18.0000 -64.9167 316° Northwest 410 472 36,000  Level San Juan Center
05:21PM 18.0667 -65.0167 305° West 410 472 36,000  Level San Juan Center
05:22PM 18.1500 -65.1000 316° Northwest 420 483 36,000  Level San Juan Center
05:23PM 18.2333 -65.2000 311° West 430 495 36,000  Level San Juan Center
05:24PM 18.3167 -65.2833 316° Northwest 430 495 36,000  Level San Juan Center
05:25PM 18.4000 -65.3833 311° West 420 483 36,000  Level San Juan Center
05:26PM 18.4667 -65.4667 310° West 400 460 36,000  Level San Juan Center
05:27PM 18.5500 -65.5500 317° Northwest 420 483 36,000  Level San Juan Center
05:28PM 18.6167 -65.6500 305° West 440 506 36,000  Level San Juan Center
05:29PM 18.7000 -65.7333 317° Northwest 410 472 36,000  Level San Juan Center
05:30PM 18.7833 -65.8333 311° West 420 483 36,000  Level San Juan Center
05:31PM 18.8500 -65.9167 310° West 420 483 36,000  Level San Juan Center
05:32PM 18.9333 -66.0167 311° West 410 472 36,000  Level San Juan Center
05:33PM 19.0167 -66.1000 317° Northwest 420 483 36,000  Level San Juan Center
05:34PM 19.1000 -66.2000 311° West 420 483 36,000  Level San Juan Center
05:35PM 19.1833 -66.2833 317° Northwest 420 483 36,000  Level San Juan Center
05:36PM 19.2333 -66.3667 302° West 410 472 36,000  Level San Juan Center
05:37PM 19.3167 -66.4500 317° Northwest 420 483 36,000  Level San Juan Center
05:38PM 19.4000 -66.5333 317° Northwest 420 483 36,000  Level San Juan Center
05:39PM 19.4833 -66.6333 311° West 420 483 36,000  Level San Juan Center
05:40PM 19.5667 -66.7167 317° Northwest 420 483 36,000  Level San Juan Center
05:41PM 19.6500 -66.8000 317° Northwest 420 483 36,000  Level San Juan Center
05:42PM 19.7167 -66.9000 305° West 420 483 36,000  Level San Juan Center
05:43PM 19.8000 -66.9833 317° Northwest 430 495 36,000  Level San Juan Center
05:44PM 19.8833 -67.0833 312° West 420 483 36,000  Level San Juan Center
05:45PM 19.9667 -67.1667 317° Northwest 420 483 36,000  Level San Juan Center
05:46PM 20.0500 -67.2667 312° West 420 483 36,000  Level San Juan Center
05:47PM 20.1333 -67.3500 317° Northwest 420 483 36,000  Level San Juan Center
05:48PM 20.2167 -67.4333 317° Northwest 420 483 36,000  Level San Juan Center
05:49PM 20.3000 -67.5333 312° West 430 495 36,000  Level San Juan Center
05:50PM 20.3667 -67.6333 305° West 430 495 36,000  Level San Juan Center
05:52PM 20.5333 -67.8167 314° West 430 495 36,000  Level San Juan Center
05:53PM 20.6264 -67.8983 321° Northwest 528 608 36,000  Level Miami Center
05:54PM 20.7067 -67.9925 312° West 489 563 36,000  Level Miami Center
05:55PM 20.7950 -68.0819 317° Northwest 453 521 36,000  Level Miami Center
05:56PM 20.8947 -68.1531 326° Northwest 430 495 36,000  Level Miami Center
05:57PM 20.9967 -68.2242 327° Northwest 430 495 36,000  Level Miami Center
05:58PM 21.0961 -68.2933 327° Northwest 436 502 36,000  Level Miami Center
05:59PM 21.1981 -68.3644 327° Northwest 438 504 36,000  Level Miami Center
06:00PM 21.3100 -68.4331 330° Northwest 449 517 36,000  Level Miami Center
06:01PM 21.4097 -68.5022 327° Northwest 449 517 36,000  Level Miami Center
06:02PM 21.5178 -68.5758 328° Northwest 449 517 36,000  Level Miami Center
06:03PM 21.6172 -68.6431 328° Northwest 443 510 36,000  Level Miami Center
06:04PM 21.7211 -68.7147 327° Northwest 436 502 36,000  Level Miami Center
06:05PM 21.8247 -68.7842 328° Northwest 441 507 36,000  Level Miami Center
06:06PM 21.9264 -68.8561 327° Northwest 441 507 36,000  Level Miami Center
06:07PM 22.0344 -68.9278 328° Northwest 441 507 36,000  Level Miami Center
06:08PM 22.1381 -68.9978 328° Northwest 441 507 36,000  Level Miami Center
06:09PM 22.2375 -69.0700 326° Northwest 441 507 36,000  Level Miami Center
06:10PM 22.3392 -69.1403 327° Northwest 439 505 36,000  Level Miami Center
06:11PM 22.4469 -69.2122 328° Northwest 439 505 36,000  Level Miami Center
06:12PM 22.5486 -69.2828 327° Northwest 432 497 36,000  Level Miami Center
06:13PM 22.6542 -69.3553 328° Northwest 432 497 36,000  Level Miami Center
06:14PM 22.7494 -69.4217 327° Northwest 425 489 36,000  Level Miami Center
06:15PM 22.8528 -69.4922 328° Northwest 430 495 36,000  Level Miami Center
06:16PM 22.9522 -69.5631 327° Northwest 428 493 36,000  Level Miami Center
06:17PM 23.0514 -69.6317 328° Northwest 428 493 36,000  Level Miami Center
06:18PM 23.1483 -69.6961 329° Northwest 428 493 36,000  Level Miami Center
06:19PM 23.2500 -69.7694 326° Northwest 433 498 36,000  Level Miami Center
06:20PM 23.3536 -69.8428 327° Northwest 433 498 36,000  Level Miami Center
06:21PM 23.4528 -69.9119 327° Northwest 433 498 36,000  Level Miami Center
06:22PM 23.5517 -69.9767 329° Northwest 427 491 36,000  Level Miami Center
06:23PM 23.6553 -70.0550 325° Northwest 433 498 36,000  Level Miami Center
06:24PM 23.7567 -70.1242 328° Northwest 433 498 36,000  Level Miami Center
06:25PM 23.8581 -70.2028 325° Northwest 433 498 36,000  Level Miami Center
06:26PM 23.9569 -70.2678 329° Northwest 426 490 36,000  Level Miami Center
06:27PM 24.0561 -70.3378 327° Northwest 435 501 36,000  Level Miami Center
06:28PM 24.1575 -70.4142 325° Northwest 435 501 36,000  Level Miami Center
06:29PM 24.2564 -70.4797 329° Northwest 430 495 36,000  Level Miami Center
06:30PM 24.3578 -70.5567 325° Northwest 430 495 36,000  Level Miami Center
06:31PM 24.4542 -70.6200 329° Northwest 437 503 36,000  Level Miami Center
06:32PM 24.5556 -70.6925 327° Northwest 432 497 36,000  Level Miami Center
06:33PM 24.6589 -70.7719 325° Northwest 433 498 36,000  Level Miami Center
06:34PM 24.7597 -70.8378 329° Northwest 433 498 36,000  Level Miami Center
06:35PM 24.8589 -70.9131 325° Northwest 431 496 36,000  Level Miami Center
06:36PM 24.9575 -70.9792 329° Northwest 436 502 36,000  Level Miami Center
06:38PM 25.0000 -71.0167 347° North 438 504 36,000  Level New York Oceanic (ODAPS)
07:13PM 28.3167 -71.9167 346° North 425 489 36,000  Level New York Oceanic (ODAPS)
07:26PM 30.5667 -72.5667 345° North 433 498 36,000  Level New York Oceanic (ODAPS)
07:42PM 32.3167 -73.1000 345° North 384 442 36,000  Level New York Oceanic (ODAPS)
07:47PM 33.0364 -73.3328 345° North 459 528 36,000  Level New York Center
07:48PM 33.1463 -73.3663 345° North 384 442 36,000  Level FlightAware Transoceanic
07:48PM 33.1503 -73.3661 346° North 445 512 36,000  Level New York Center
07:49PM 33.2500 -73.4000 345° North 384 442 36,000  Level FlightAware Transoceanic
07:49PM 33.2600 -73.3994 346° North 415 478 36,000  Level New York Center
07:50PM 33.3617 -73.4362 345° North 384 442 36,000  Level FlightAware Transoceanic
07:50PM 33.2500 -73.4000 345° North 416 479 36,000  Level New York Oceanic (ODAPS)
07:50PM 33.3678 -73.4353 345° North 401 461 36,000  Level New York Center
07:51PM 33.4734 -73.4726 345° North 384 442 36,000  Level FlightAware Transoceanic
07:51PM 33.4731 -73.4711 344° North 401 461 36,000  Level New York Center
07:52PM 33.5851 -73.5090 345° North 384 442 36,000  Level FlightAware Transoceanic
07:52PM 33.5808 -73.5069 345° North 401 461 36,000  Level New York Center
07:53PM 33.7136 -73.5364 350° North 451 519 36,000  Level New York Center
07:54PM 33.8022 -73.5794 338° Northwest 360 414 36,000  Level New York Center
07:55PM 33.9328 -73.6042 351° North 395 455 36,000  Level New York Center
07:56PM 34.0447 -73.6406 345° North 395 455 36,000  Level New York Center
07:57PM 34.1522 -73.6769 344° North 400 460 36,000 300 Level New York Center
07:58PM 34.2597 -73.7111 345° North 394 453 36,600 700 Climbing New York Center
07:59PM 34.3650 -73.7528 342° North 394 453 37,400 700 Climbing New York Center
08:00PM 34.4358 -73.8358 316° Northwest 367 422 38,000 300 Climbing New York Center
08:01PM 34.5086 -73.9244 315° West 359 413 38,000  Level New York Center
08:02PM 34.5792 -74.0128 314° West 359 413 38,000  Level New York Center
08:03PM 34.6539 -74.1017 316° Northwest 365 420 38,000  Level New York Center
08:04PM 34.7242 -74.1906 314° West 371 427 38,000  Level New York Center
08:05PM 34.7967 -74.2847 313° West 371 427 38,000  Level New York Center
08:06PM 34.8689 -74.3764 314° West 371 427 38,000  Level New York Center
08:07PM 34.9414 -74.4608 316° Northwest 371 427 38,000  Level New York Center
08:08PM 35.0114 -74.5556 312° West 371 427 38,000  Level New York Center
08:09PM 35.0833 -74.6478 314° West 371 427 38,000  Level New York Center
08:10PM 35.1531 -74.7425 312° West 376 433 38,000  Level New York Center
08:13PM 35.3281 -74.9633 314° West 377 434 38,000  Level Washington Center
08:14PM 35.3994 -75.0569 313° West 377 434 38,000  Level Washington Center
08:15PM 35.4708 -75.1483 314° West 372 428 38,000  Level Washington Center
08:16PM 35.5400 -75.2397 313° West 367 422 38,000  Level Washington Center
08:17PM 35.6131 -75.3289 315° West 373 429 38,000  Level Washington Center
08:18PM 35.6822 -75.4233 312° West 373 429 38,000  Level Washington Center
08:19PM 35.7533 -75.5153 314° West 373 429 38,000  Level Washington Center
08:20PM 35.8242 -75.6100 313° West 373 429 38,000  Level Washington Center
08:21PM 35.8950 -75.7022 313° West 368 423 38,000  Level Washington Center
08:22PM 35.9658 -75.7922 314° West 368 423 38,000  Level Washington Center
08:23PM 36.0367 -75.8847 313° West 368 423 38,000  Level Washington Center
08:24PM 36.1075 -75.9778 313° West 368 423 38,000  Level Washington Center
08:25PM 36.1758 -76.0681 313° West 368 423 38,000  Level Washington Center
08:26PM 36.2528 -76.1611 316° Northwest 368 423 38,000  Level Washington Center
08:27PM 36.3589 -76.2083 340° North 379 436 38,000  Level Washington Center
08:28PM 36.4525 -76.2453 342° North 384 442 38,000  Level Washington Center
08:29PM 36.5631 -76.2825 345° North 396 456 38,000  Level Washington Center
08:30PM 36.6711 -76.3197 345° North 403 464 38,000  Level Washington Center
08:31PM 36.7794 -76.3517 347° North 398 458 38,000  Level Washington Center
08:32PM 36.8878 -76.3892 345° North 398 458 38,000  Level Washington Center
08:33PM 36.9939 -76.4267 344° North 398 458 38,000  Level Washington Center
08:34PM 37.1022 -76.4642 345° North 398 458 38,000  Level Washington Center
08:35PM 37.2103 -76.4994 345° North 398 458 38,000  Level Washington Center
08:36PM 37.3311 -76.5425 344° North 398 458 38,000  Level Washington Center
08:37PM 37.4392 -76.5753 346° North 398 458 38,000  Level Washington Center
08:38PM 37.5472 -76.6133 344° North 398 458 38,000  Level Washington Center
08:39PM 37.6556 -76.6517 344° North 398 458 38,000  Level Washington Center
08:40PM 37.7636 -76.6897 344° North 398 458 38,000  Level Washington Center
08:41PM 37.8697 -76.7281 344° North 398 458 38,000  Level Washington Center
08:42PM 37.9797 -76.7667 345° North 398 458 38,000  Level Washington Center
08:43PM 38.0900 -76.8053 345° North 398 458 38,000  Level Washington Center
08:44PM 38.1981 -76.8442 344° North 398 458 38,000  Level Washington Center
08:45PM 38.3081 -76.8831 344° North 398 458 38,000  Level Washington Center
08:46PM 38.4161 -76.9247 343° North 398 458 38,000  Level Washington Center
08:47PM 38.5261 -76.9611 345° North 398 458 38,000  Level Washington Center
08:48PM 38.6383 -77.0031 344° North 398 458 38,000  Level Washington Center
08:49PM 38.7483 -77.0422 344° North 403 464 38,000  Level Washington Center
08:50PM 38.8583 -77.0817 344° North 403 464 38,000  Level Washington Center
08:52PM 39.0586 -77.1539 344° North 411 473 38,000  Level New York Center
08:53PM 39.1733 -77.1936 345° North 411 473 38,000  Level New York Center
08:54PM 39.2875 -77.2389 343° North 416 479 38,000  Level New York Center
08:55PM 39.4042 -77.2817 344° North 426 490 38,000  Level New York Center
08:56PM 39.5208 -77.3222 345° North 426 490 38,000  Level New York Center
08:57PM 39.6372 -77.3653 344° North 426 490 38,000  Level New York Center
08:58PM 39.7494 -77.4083 344° North 431 496 38,000  Level New York Center
08:59PM 39.8658 -77.4517 344° North 431 496 38,000  Level New York Center
09:00PM 39.9803 -77.4925 345° North 431 496 38,000  Level New York Center
09:01PM 40.0967 -77.5364 344° North 431 496 38,000  Level New York Center
09:02PM 40.1967 -77.5731 344° North 431 496 38,000  Level New York Center
09:03PM 40.3153 -77.6147 345° North 431 496 38,000  Level New York Center
09:04PM 40.4272 -77.6614 342° North 431 496 38,000  Level New York Center
09:05PM 40.5436 -77.7031 345° North 431 496 38,000  Level New York Center
09:06PM 40.6700 -77.7514 344° North 431 496 38,000 -462 Level New York Center
09:07PM 40.8725 -77.8292 344° North 418 481 36,700 -706 Descending Cleveland Center
09:08PM 40.9786 -77.8703 344° North 407 468 36,000 -344 Descending Cleveland Center
09:09PM 41.0828 -77.9094 344° North 398 458 36,000  Level Cleveland Center
09:10PM 41.1900 -77.9517 343° North 403 464 36,000  Level Cleveland Center
09:11PM 41.2983 -77.9933 344° North 409 471 36,000  Level Cleveland Center
09:12PM 41.4075 -78.0358 344° North 413 475 36,000  Level Cleveland Center
09:13PM 41.5383 -78.0875 344° North 413 475 36,000 -738 Level Cleveland Center
09:14PM 41.6458 -78.1297 344° North 409 471 34,500 -1,415 Descending Cleveland Center
09:16PM 41.7486 -78.1700 344° North 393 452 33,100 -1,171 Descending Cleveland Center
09:17PM 41.8544 -78.2122 343° North 397 457 32,100 -541 Descending Cleveland Center
09:18PM 41.9664 -78.2569 343° North 416 479 32,000 -49 Descending Cleveland Center
09:19PM 42.0789 -78.3022 343° North 424 488 32,000  Level Cleveland Center
09:20PM 42.1928 -78.3483 343° North 428 493 32,000  Level Cleveland Center
09:21PM 42.3106 -78.3953 344° North 436 502 32,000 -344 Level Cleveland Center
09:22PM 42.4283 -78.4433 343° North 438 504 31,300 -836 Descending Cleveland Center
09:23PM 42.5439 -78.4903 343° North 434 499 30,300 -1,770 Descending Cleveland Center
09:24PM 42.6547 -78.5353 343° North 417 480 27,700 -3,148 Descending Cleveland Center
09:25PM 42.7889 -78.5900 343° North 416 479 23,900 -3,344 Descending Cleveland Center
09:26PM 42.8944 -78.6339 343° North 399 459 20,900 -2,951 Descending Cleveland Center
09:27PM 42.9658 -78.7203 318° Northwest 344 396 17,900 -1,869 Descending Cleveland Center
09:28PM 43.0206 -78.8217 306° West 330 380 17,100 -850 Descending Cleveland Center
09:29PM 43.0667 -78.9000 309° West 330 380 16,200 -1,261 Descending Toronto Center
09:30PM 43.1167 -79.0000 304° West 290 334 14,600 -1,550 Descending Toronto Center
09:31PM 43.1500 -79.0833 299° West 280 322 13,100 -1,300 Descending Toronto Center
09:32PM 43.2000 -79.1500 316° Northwest 270 311 12,000 -550 Descending Toronto Center
09:33PM 43.2333 -79.2167 304° West 260 299 12,000  Level Toronto Center
09:34PM 43.2833 -79.3167 305° West 260 299 12,000 -400 Level Toronto Center
09:35PM 43.3500 -79.3833 324° Northwest 270 311 11,200 -850 Descending Toronto Center
09:36PM 43.4167 -79.4000 350° North 270 311 10,300 -850 Descending Toronto Center
09:37PM 43.4833 -79.4500 331° Northwest 270 311 9,500 -800 Descending Toronto Center
09:38PM 43.5500 -79.5000 331° Northwest 260 299 8,700 -850 Descending Toronto Center
09:39PM 43.6000 -79.5000 360° North 240 276 7,800 -1,200 Descending Toronto Center
09:40PM 43.6500 -79.4333 44° Northeast 250 288 6,300 -1,450 Descending Toronto Center
09:41PM 43.7000 -79.3500 50° Northeast 250 288 4,900 -1,150 Descending Toronto Center
09:42PM 43.7500 -79.2833 44° Northeast 250 288 4,000 -450 Descending Toronto Center
09:43PM 43.8000 -79.2333 36° Northeast 240 276 4,000  Level Toronto Center
09:44PM 43.8333 -79.2667 324° Northwest 200 230 4,000  Level Toronto Center
09:45PM 43.8333 -79.3167 270° West 180 207 4,000  Level Toronto Center
09:46PM 43.8167 -79.3833 251° West 160 184 4,000 -50 Level Toronto Center
09:47PM 43.7833 -79.4000 200° South 150 173 3,900 -450 Descending Toronto Center
09:48PM 43.7500 -79.4500 227° Southwest 150 173 3,100 -800 Descending Toronto Center
09:49PM 43.7333 -79.5000 245° Southwest 130 150 2,300 -700 Descending Toronto Center
09:50PM 43.7000 -79.5167 200° South 120 138 1,700 -600 Descending Toronto Center
09:51PM 43.6833 -79.5667 245° Southwest 110 127 1,100 -550 Descending Toronto Center
09:52PM 43.6667 -79.5833 216° Southwest 110 127 600 -500 Descending Toronto Center